createdAt,value
2018-02-14T00:01:54.138Z,-1.50
2018-02-14T00:03:57.491Z,-1.50
2018-02-14T00:06:00.098Z,-1.50
2018-02-14T00:08:02.762Z,-1.60
2018-02-14T00:10:05.454Z,-1.70
2018-02-14T00:12:08.063Z,-1.70
2018-02-14T00:14:10.776Z,-1.70
2018-02-14T00:16:13.443Z,-1.60
2018-02-14T00:18:16.823Z,-1.60
2018-02-14T00:20:19.478Z,-1.60
2018-02-14T00:22:22.135Z,-1.60
2018-02-14T00:24:25.062Z,-1.60
2018-02-14T00:26:27.672Z,-1.60
2018-02-14T00:28:30.346Z,-1.40
2018-02-14T00:30:33.716Z,-1.30
2018-02-14T00:32:36.328Z,-1.30
2018-02-14T00:34:39.055Z,-1.20
2018-02-14T00:36:42.571Z,-1.20
2018-02-14T00:38:45.981Z,-1.30
2018-02-14T00:40:49.416Z,-1.30
2018-02-14T00:42:52.088Z,-1.20
2018-02-14T00:44:55.541Z,-1.30
2018-02-14T00:46:58.258Z,-1.30
2018-02-14T00:49:01.003Z,-1.10
2018-02-14T00:51:03.800Z,-1.30
2018-02-14T00:53:07.166Z,-1.30
2018-02-14T00:55:09.815Z,-1.30
2018-02-14T00:57:13.227Z,-1.20
2018-02-14T00:59:16.591Z,-1.20
2018-02-14T01:01:19.998Z,-1.10
2018-02-14T01:03:22.649Z,-1.10
2018-02-14T01:05:26.077Z,-1.20
2018-02-14T01:07:28.718Z,-1.20
2018-02-14T01:09:31.358Z,-1.20
2018-02-14T01:11:34.818Z,-1.20
2018-02-14T01:13:37.472Z,-1.20
2018-02-14T01:15:40.879Z,-1.40
2018-02-14T01:17:44.298Z,-1.60
2018-02-14T01:19:47.668Z,-1.60
2018-02-14T01:21:50.313Z,-1.70
2018-02-14T01:23:53.688Z,-1.60
2018-02-14T01:25:56.420Z,-1.60
2018-02-14T01:27:59.784Z,-1.70
2018-02-14T01:30:02.408Z,-1.70
2018-02-14T01:32:05.062Z,-1.70
2018-02-14T01:34:07.672Z,-1.70
2018-02-14T01:36:10.337Z,-1.70
2018-02-14T01:38:13.017Z,-1.70
2018-02-14T01:40:16.429Z,-1.50
2018-02-14T01:42:19.944Z,-1.40
2018-02-14T01:44:23.318Z,-1.40
2018-02-14T01:46:25.952Z,-1.40
2018-02-14T01:48:29.366Z,-1.30
2018-02-14T01:50:40.717Z,-1.10
2018-02-14T01:52:43.319Z,-1.10
2018-02-14T01:54:46.069Z,-1.00
2018-02-14T01:56:48.669Z,-1.10
2018-02-14T01:58:51.313Z,-1.10
2018-02-14T02:00:53.902Z,-1.20
2018-02-14T02:02:57.311Z,-1.50
2018-02-14T02:04:59.953Z,-1.50
2018-02-14T02:07:03.327Z,-1.60
2018-02-14T02:09:05.939Z,-1.60
2018-02-14T02:11:08.674Z,-1.40
2018-02-14T02:13:11.283Z,-1.30
2018-02-14T02:15:13.969Z,-1.10
2018-02-14T02:17:16.657Z,-1.20
2018-02-14T02:19:20.170Z,-1.10
2018-02-14T02:21:23.547Z,-1.20
2018-02-14T02:23:26.173Z,-1.30
2018-02-14T02:25:29.598Z,-1.40
2018-02-14T02:27:32.992Z,-1.40
2018-02-14T02:29:35.649Z,-1.40
2018-02-14T02:31:38.278Z,-1.50
2018-02-14T02:33:40.999Z,-1.50
2018-02-14T02:35:44.520Z,-1.50
2018-02-14T02:37:47.900Z,-1.70
2018-02-14T02:40:02.229Z,-1.70
2018-02-14T02:42:04.862Z,-1.80
2018-02-14T02:44:07.623Z,-1.90
2018-02-14T02:46:10.240Z,-1.80
2018-02-14T02:48:12.854Z,-1.80
2018-02-14T02:50:15.498Z,-1.90
2018-02-14T02:52:18.183Z,-1.80
2018-02-14T02:54:21.613Z,-1.90
2018-02-14T02:56:24.239Z,-1.90
2018-02-14T02:58:26.896Z,-2.00
2018-02-14T03:00:29.580Z,-2.00
2018-02-14T03:02:32.994Z,-2.00
2018-02-14T03:04:36.327Z,-2.20
2018-02-14T03:06:39.015Z,-2.20
2018-02-14T03:08:41.713Z,-2.20
2018-02-14T03:10:45.114Z,-2.30
2018-02-14T03:12:48.538Z,-2.10
2018-02-14T03:14:51.934Z,-2.00
2018-02-14T03:16:54.545Z,-2.00
2018-02-14T03:18:58.057Z,-2.10
2018-02-14T03:21:01.424Z,-2.10
2018-02-14T03:23:04.169Z,-2.10
2018-02-14T03:25:07.579Z,-1.80
2018-02-14T03:27:10.933Z,-1.90
2018-02-14T03:29:13.694Z,-1.90
2018-02-14T03:31:16.373Z,-1.90
2018-02-14T03:33:18.985Z,-1.90
2018-02-14T03:35:22.380Z,-2.00
2018-02-14T03:37:25.817Z,-1.90
2018-02-14T03:39:29.235Z,-1.90
2018-02-14T03:41:32.645Z,-1.70
2018-02-14T03:43:36.017Z,-1.50
2018-02-14T03:45:38.650Z,-1.50
2018-02-14T03:47:42.040Z,-1.30
2018-02-14T03:49:44.659Z,-1.30
2018-02-14T03:51:48.023Z,-1.10
2018-02-14T03:53:50.670Z,-1.20
2018-02-14T03:55:54.083Z,-1.00
2018-02-14T03:57:57.433Z,-1.10
2018-02-14T04:00:00.088Z,-1.10
2018-02-14T04:02:03.470Z,-1.20
2018-02-14T04:04:06.139Z,-1.20
2018-02-14T04:06:08.770Z,-1.30
2018-02-14T04:08:11.395Z,-1.30
2018-02-14T04:10:14.765Z,-1.10
2018-02-14T04:12:17.413Z,-1.10
2018-02-14T04:14:20.825Z,-1.00
2018-02-14T04:16:24.240Z,-1.00
2018-02-14T04:18:27.651Z,-1.00
2018-02-14T04:20:31.030Z,-1.10
2018-02-14T04:22:33.656Z,-1.10
2018-02-14T04:24:37.044Z,-1.10
2018-02-14T04:26:39.774Z,-1.10
2018-02-14T04:28:43.293Z,-0.80
2018-02-14T04:30:46.659Z,-0.80
2018-02-14T04:32:49.300Z,-0.80
2018-02-14T04:34:52.661Z,-0.70
2018-02-14T04:36:55.425Z,-0.80
2018-02-14T04:38:58.025Z,-0.80
2018-02-14T04:41:00.701Z,-0.80
2018-02-14T04:43:04.130Z,-0.90
2018-02-14T04:45:06.750Z,-0.90
2018-02-14T04:47:09.424Z,-0.90
2018-02-14T04:49:12.091Z,-0.90
2018-02-14T04:51:14.915Z,-1.00
2018-02-14T04:53:18.291Z,-1.00
2018-02-14T04:55:20.905Z,-1.00
2018-02-14T04:57:23.626Z,-1.10
2018-02-14T04:59:26.992Z,-1.10
2018-02-14T05:01:29.634Z,-1.10
2018-02-14T05:03:33.101Z,-1.00
2018-02-14T05:05:35.740Z,-1.00
2018-02-14T05:07:39.153Z,-1.00
2018-02-14T05:09:42.541Z,-1.00
2018-02-14T05:11:45.186Z,-1.00
2018-02-14T05:13:47.854Z,-1.00
2018-02-14T05:15:51.376Z,-1.00
2018-02-14T05:17:54.744Z,-1.00
2018-02-14T05:19:57.377Z,-1.00
2018-02-14T05:22:00.801Z,-1.30
2018-02-14T05:24:04.217Z,-1.40
2018-02-14T05:26:07.616Z,-1.60
2018-02-14T05:28:10.256Z,-1.60
2018-02-14T05:30:12.920Z,-1.60
2018-02-14T05:32:16.442Z,-1.30
2018-02-14T05:34:19.873Z,-1.20
2018-02-14T05:36:22.512Z,-1.20
2018-02-14T05:38:25.148Z,-1.30
2018-02-14T05:40:28.580Z,-1.20
2018-02-14T05:42:31.253Z,-1.20
2018-02-14T05:44:34.775Z,-1.30
2018-02-14T05:46:38.233Z,-1.20
2018-02-14T05:48:40.906Z,-1.20
2018-02-14T05:50:43.612Z,-1.20
2018-02-14T05:52:46.205Z,-1.20
2018-02-14T05:54:48.842Z,-1.30
2018-02-14T05:56:51.575Z,-1.30
2018-02-14T05:58:54.947Z,-1.30
2018-02-14T06:00:57.573Z,-1.30
2018-02-14T06:03:00.201Z,-1.30
2018-02-14T06:05:02.801Z,-1.50
2018-02-14T06:07:05.462Z,-1.50
2018-02-14T06:09:08.892Z,-1.40
2018-02-14T06:11:12.301Z,-1.30
2018-02-14T06:13:15.711Z,-1.40
2018-02-14T06:15:19.086Z,-1.50
2018-02-14T06:17:21.740Z,-1.50
2018-02-14T06:19:24.375Z,-1.70
2018-02-14T06:21:27.838Z,-1.40
2018-02-14T06:23:31.252Z,-1.50
2018-02-14T06:25:34.707Z,-1.50
2018-02-14T06:27:37.359Z,-1.50
2018-02-14T06:29:40.746Z,-1.60
2018-02-14T06:31:43.381Z,-1.60
2018-02-14T06:33:46.748Z,-1.70
2018-02-14T06:35:49.422Z,-1.70
2018-02-14T06:37:52.056Z,-1.80
2018-02-14T06:39:54.777Z,-1.50
2018-02-14T06:41:58.211Z,-1.50
2018-02-14T06:44:00.835Z,-1.50
2018-02-14T06:46:03.556Z,-1.50
2018-02-14T06:48:06.192Z,-1.50
2018-02-14T06:50:09.697Z,-1.80
2018-02-14T06:52:13.138Z,-1.70
2018-02-14T06:54:15.861Z,-1.80
2018-02-14T06:56:18.503Z,-1.70
2018-02-14T06:58:21.087Z,-1.70
2018-02-14T07:00:23.747Z,-1.60
2018-02-14T07:02:26.401Z,-1.60
2018-02-14T07:04:29.776Z,-1.60
2018-02-14T07:06:32.507Z,-1.60
2018-02-14T07:08:35.141Z,-1.50
2018-02-14T07:10:37.807Z,-1.50
2018-02-14T07:12:41.174Z,-1.50
2018-02-14T07:14:43.797Z,-1.50
2018-02-14T07:16:46.518Z,-1.50
2018-02-14T07:18:50.031Z,-1.30
2018-02-14T07:20:53.397Z,-1.20
2018-02-14T07:22:55.997Z,-1.30
2018-02-14T07:24:58.662Z,-1.20
2018-02-14T07:27:01.342Z,-1.20
2018-02-14T07:29:04.838Z,-1.10
2018-02-14T07:31:08.303Z,-1.10
2018-02-14T07:33:10.919Z,-1.10
2018-02-14T07:35:13.597Z,-1.10
2018-02-14T07:37:16.251Z,-1.10
2018-02-14T07:39:19.663Z,-1.00
2018-02-14T07:41:23.138Z,-1.00
2018-02-14T07:43:25.761Z,-1.00
2018-02-14T07:45:28.523Z,-0.90
2018-02-14T07:47:31.279Z,-0.80
2018-02-14T07:49:34.792Z,-0.70
2018-02-14T07:51:38.272Z,-0.70
2018-02-14T07:53:40.921Z,-0.70
2018-02-14T07:55:43.511Z,-0.60
2018-02-14T07:57:46.161Z,-0.60
2018-02-14T07:59:48.797Z,-0.60
2018-02-14T08:01:52.273Z,-0.60
2018-02-14T08:03:54.894Z,-0.70
2018-02-14T08:05:57.509Z,-0.60
2018-02-14T08:08:00.927Z,-0.50
2018-02-14T08:10:03.638Z,-0.50
2018-02-14T08:12:06.293Z,-0.50
2018-02-14T08:14:08.978Z,-0.50
2018-02-14T08:16:11.612Z,-0.50
2018-02-14T08:18:14.247Z,-0.40
2018-02-14T08:20:16.910Z,-0.40
2018-02-14T08:22:19.628Z,-0.40
2018-02-14T08:24:22.294Z,-0.40
2018-02-14T08:26:25.719Z,-0.40
2018-02-14T08:28:28.327Z,-0.40
2018-02-14T08:30:30.989Z,-0.30
2018-02-14T08:32:34.424Z,-0.30
2018-02-14T08:34:37.833Z,-0.10
2018-02-14T08:36:41.224Z,-0.20
2018-02-14T08:38:43.838Z,-0.20
2018-02-14T08:40:47.313Z,-0.10
2018-02-14T08:42:50.697Z,-0.20
2018-02-14T08:44:53.328Z,-0.20
2018-02-14T08:46:56.071Z,-0.20
2018-02-14T08:48:59.447Z,-0.20
2018-02-14T08:51:02.104Z,-0.20
2018-02-14T08:53:04.772Z,-0.10
2018-02-14T08:55:08.224Z,-0.10
2018-02-14T08:57:10.882Z,-0.10
2018-02-14T08:59:14.283Z,-0.10
2018-02-14T09:01:16.929Z,-0.10
2018-02-14T09:03:19.529Z,0.00
2018-02-14T09:05:22.172Z,0.00
2018-02-14T09:07:25.588Z,0.20
2018-02-14T09:09:28.947Z,0.20
2018-02-14T09:11:31.608Z,0.20
2018-02-14T09:15:38.459Z,0.30
2018-02-14T09:17:41.130Z,0.30
2018-02-14T09:19:44.528Z,0.40
2018-02-14T09:21:47.170Z,0.40
2018-02-14T09:23:49.862Z,0.50
2018-02-14T09:25:53.280Z,0.50
2018-02-14T09:27:56.009Z,0.50
2018-02-14T09:29:58.675Z,0.60
2018-02-14T09:32:01.450Z,0.60
2018-02-14T09:34:04.938Z,0.70
2018-02-14T09:36:07.552Z,0.70
2018-02-14T09:38:10.989Z,0.80
2018-02-14T09:40:13.630Z,0.80
2018-02-14T09:42:16.234Z,0.80
2018-02-14T09:44:20.364Z,0.90
2018-02-14T09:46:22.983Z,0.90
2018-02-14T09:48:25.618Z,1.00
2018-02-14T09:50:28.224Z,1.00
2018-02-14T09:52:30.844Z,1.10
2018-02-14T09:54:33.491Z,1.10
2018-02-14T09:56:36.897Z,1.20
2018-02-14T09:58:40.283Z,1.20
2018-02-14T10:00:42.954Z,1.20
2018-02-14T10:02:46.349Z,1.30
2018-02-14T10:04:48.994Z,1.30
2018-02-14T10:06:51.709Z,1.40
2018-02-14T10:08:55.064Z,1.40
2018-02-14T10:10:58.000Z,1.40
2018-02-14T10:13:00.642Z,1.50
2018-02-14T10:15:03.263Z,1.50
2018-02-14T10:17:05.888Z,1.60
2018-02-14T10:19:08.521Z,1.60
2018-02-14T10:21:11.160Z,1.60
2018-02-14T10:23:13.771Z,1.60
2018-02-14T10:25:16.366Z,1.60
2018-02-14T10:27:19.094Z,1.70
2018-02-14T10:29:22.459Z,1.80
2018-02-14T10:31:25.108Z,1.80
2018-02-14T10:33:28.550Z,1.80
2018-02-14T10:35:31.330Z,1.80
2018-02-14T10:37:34.760Z,1.90
2018-02-14T10:39:37.413Z,1.90
2018-02-14T10:41:40.080Z,2.00
2018-02-14T10:43:42.701Z,2.00
2018-02-14T10:45:45.342Z,2.10
2018-02-14T10:47:47.953Z,2.10
2018-02-14T10:49:50.620Z,2.20
2018-02-14T10:51:54.011Z,2.30
2018-02-14T10:53:56.630Z,2.30
2018-02-14T10:56:00.076Z,2.40
2018-02-14T10:58:02.740Z,2.40
2018-02-14T11:00:06.121Z,2.50
2018-02-14T11:02:10.574Z,2.50
2018-02-14T11:04:19.490Z,2.60
2018-02-14T11:06:36.800Z,2.60
2018-02-14T11:08:39.563Z,2.60
2018-02-14T11:10:42.978Z,2.70
2018-02-14T11:12:46.431Z,2.80
2018-02-14T11:14:49.041Z,2.80
2018-02-14T11:16:51.625Z,2.80
2018-02-14T11:18:54.291Z,2.80
2018-02-14T11:20:56.974Z,2.80
2018-02-14T11:23:00.360Z,2.90
2018-02-14T11:25:02.997Z,2.90
2018-02-14T11:27:05.605Z,2.90
2018-02-14T11:29:08.240Z,2.90
2018-02-14T11:31:10.846Z,3.00
2018-02-14T11:33:13.470Z,3.00
2018-02-14T11:35:16.845Z,3.10
2018-02-14T11:37:19.456Z,3.10
2018-02-14T11:39:22.129Z,3.10
2018-02-14T11:41:24.824Z,3.10
2018-02-14T11:43:28.200Z,3.20
2018-02-14T11:45:30.845Z,3.10
2018-02-14T11:47:34.245Z,3.20
2018-02-14T11:49:36.894Z,3.20
2018-02-14T11:51:40.277Z,3.30
2018-02-14T11:53:42.959Z,3.30
2018-02-14T11:55:46.390Z,3.40
2018-02-14T11:57:49.009Z,3.40
2018-02-14T11:59:52.399Z,3.40
2018-02-14T12:01:55.061Z,3.40
2018-02-14T12:03:57.720Z,3.40
2018-02-14T12:06:01.132Z,3.40
2018-02-14T12:08:04.555Z,3.40
2018-02-14T12:10:07.941Z,3.50
2018-02-14T12:12:10.713Z,3.40
2018-02-14T12:14:13.292Z,3.40
2018-02-14T12:16:15.932Z,3.40
2018-02-14T12:18:18.577Z,3.40
2018-02-14T12:20:21.203Z,3.50
2018-02-14T12:22:23.819Z,3.50
2018-02-14T12:24:26.559Z,3.50
2018-02-14T12:26:29.335Z,3.50
2018-02-14T12:28:32.824Z,3.60
2018-02-14T12:30:35.446Z,3.50
2018-02-14T12:32:38.879Z,3.60
2018-02-14T12:34:41.525Z,3.60
2018-02-14T12:36:44.161Z,3.50
2018-02-14T12:38:47.566Z,3.60
2018-02-14T12:40:50.280Z,3.60
2018-02-14T12:42:53.683Z,3.60
2018-02-14T12:44:57.120Z,3.60
2018-02-14T12:46:59.811Z,3.60
2018-02-14T12:49:02.458Z,3.60
2018-02-14T12:51:05.915Z,3.60
2018-02-14T12:53:09.342Z,3.70
2018-02-14T12:55:11.956Z,3.70
2018-02-14T12:57:14.616Z,3.70
2018-02-14T12:59:18.040Z,3.70
2018-02-14T13:01:21.577Z,3.70
2018-02-14T13:03:24.245Z,3.70
2018-02-14T13:05:27.670Z,3.70
2018-02-14T13:07:31.037Z,3.70
2018-02-14T13:09:33.780Z,3.70
2018-02-14T13:11:37.287Z,3.70
2018-02-14T13:13:40.706Z,3.70
2018-02-14T13:15:43.498Z,3.70
2018-02-14T13:17:46.876Z,3.60
2018-02-14T13:19:49.592Z,3.60
2018-02-14T13:21:52.210Z,3.60
2018-02-14T13:23:55.612Z,3.60
2018-02-14T13:25:59.005Z,3.70
2018-02-14T13:28:01.636Z,3.60
2018-02-14T13:30:05.045Z,3.60
2018-02-14T13:32:08.455Z,3.60
2018-02-14T13:34:11.836Z,3.60
2018-02-14T13:36:14.494Z,3.60
2018-02-14T13:38:17.272Z,3.60
2018-02-14T13:40:20.018Z,3.60
2018-02-14T13:42:22.656Z,3.70
2018-02-14T13:44:26.077Z,3.70
2018-02-14T13:46:29.596Z,3.70
2018-02-14T13:48:32.977Z,3.80
2018-02-14T13:50:35.639Z,3.70
2018-02-14T13:52:38.462Z,3.70
2018-02-14T13:54:41.165Z,3.70
2018-02-14T13:56:43.806Z,3.60
2018-02-14T13:58:47.172Z,3.60
2018-02-14T14:00:49.917Z,3.60
2018-02-14T14:02:53.293Z,3.70
2018-02-14T14:04:56.027Z,3.60
2018-02-14T14:06:59.458Z,3.60
2018-02-14T14:09:02.133Z,3.70
2018-02-14T14:11:05.653Z,3.60
2018-02-14T14:13:09.113Z,3.60
2018-02-14T14:15:11.972Z,3.60
2018-02-14T14:17:15.377Z,3.70
2018-02-14T14:19:18.017Z,3.70
2018-02-14T14:21:20.656Z,3.70
2018-02-14T14:23:23.276Z,3.60
2018-02-14T14:25:26.739Z,3.60
2018-02-14T14:27:29.417Z,3.60
2018-02-14T14:29:32.057Z,3.70
2018-02-14T14:31:34.672Z,3.70
2018-02-14T14:33:37.380Z,3.70
2018-02-14T14:35:40.773Z,3.70
2018-02-14T14:37:43.384Z,3.60
2018-02-14T14:39:46.907Z,3.60
2018-02-14T14:41:50.328Z,3.70
2018-02-14T14:43:53.836Z,3.70
2018-02-14T14:45:57.202Z,3.60
2018-02-14T14:47:59.807Z,3.60
2018-02-14T14:50:02.549Z,3.60
2018-02-14T14:52:05.919Z,3.60
2018-02-14T14:54:08.602Z,3.50
2018-02-14T14:56:11.243Z,3.50
2018-02-14T14:58:14.624Z,3.50
2018-02-14T15:00:17.324Z,3.50
2018-02-14T15:02:20.685Z,3.40
2018-02-14T15:04:23.304Z,3.40
2018-02-14T15:06:26.024Z,3.40
2018-02-14T15:08:28.644Z,3.40
2018-02-14T15:10:31.459Z,3.40
2018-02-14T15:12:34.849Z,3.40
2018-02-14T15:14:37.462Z,3.30
2018-02-14T15:16:40.129Z,3.30
2018-02-14T15:18:42.867Z,3.20
2018-02-14T15:20:46.239Z,3.20
2018-02-14T15:22:48.901Z,3.20
2018-02-14T15:24:51.510Z,3.20
2018-02-14T15:26:54.173Z,3.20
2018-02-14T15:28:57.623Z,3.20
2018-02-14T15:31:00.224Z,3.20
2018-02-14T15:33:02.859Z,3.10
2018-02-14T15:35:05.499Z,3.10
2018-02-14T15:37:08.148Z,3.00
2018-02-14T15:39:10.807Z,3.00
2018-02-14T15:41:13.410Z,3.00
2018-02-14T15:43:16.029Z,2.80
2018-02-14T15:45:18.669Z,2.60
2018-02-14T15:47:21.328Z,2.60
2018-02-14T15:49:23.961Z,2.60
2018-02-14T15:51:26.609Z,2.60
2018-02-14T15:53:29.992Z,2.60
2018-02-14T15:55:32.770Z,2.50
2018-02-14T15:57:35.367Z,2.60
2018-02-14T15:59:38.154Z,2.50
2018-02-14T16:01:41.570Z,2.70
2018-02-14T16:03:45.006Z,2.50
2018-02-14T16:05:47.622Z,2.50
2018-02-14T16:07:50.243Z,2.50
2018-02-14T16:09:52.928Z,2.40
2018-02-14T16:11:55.672Z,2.30
2018-02-14T16:13:59.048Z,2.00
2018-02-14T16:16:01.648Z,2.00
2018-02-14T16:18:04.395Z,2.00
2018-02-14T16:20:07.182Z,1.90
2018-02-14T16:22:10.615Z,1.70
2018-02-14T16:24:13.229Z,1.70
2018-02-14T16:26:15.855Z,1.70
2018-02-14T16:28:18.581Z,1.50
2018-02-14T16:30:22.025Z,1.40
2018-02-14T16:32:24.699Z,1.40
2018-02-14T16:34:28.154Z,1.10
2018-02-14T16:36:30.807Z,1.10
2018-02-14T16:38:34.202Z,1.10
2018-02-14T16:40:36.967Z,1.00
2018-02-14T16:42:39.620Z,1.00
2018-02-14T16:44:43.054Z,0.90
2018-02-14T16:46:45.798Z,0.90
2018-02-14T16:48:48.525Z,1.00
2018-02-14T16:50:51.961Z,0.70
2018-02-14T16:52:54.649Z,0.70
2018-02-14T16:54:58.109Z,0.60
2018-02-14T16:57:00.809Z,0.60
2018-02-14T16:59:03.561Z,0.60
2018-02-14T17:01:07.041Z,0.60
2018-02-14T17:03:09.688Z,0.60
2018-02-14T17:05:12.407Z,0.50
2018-02-14T17:07:15.042Z,0.60
2018-02-14T17:09:17.702Z,0.70
2018-02-14T17:11:20.455Z,0.80
2018-02-14T17:13:23.835Z,0.80
2018-02-14T17:15:26.436Z,0.80
2018-02-14T17:17:29.146Z,0.80
2018-02-14T17:19:31.765Z,0.70
2018-02-14T17:21:35.130Z,0.70
2018-02-14T17:23:37.816Z,0.70
2018-02-14T17:25:40.468Z,0.80
2018-02-14T17:27:44.191Z,0.80
2018-02-14T17:29:47.565Z,0.70
2018-02-14T17:31:51.736Z,0.70
2018-02-14T17:33:55.180Z,0.80
2018-02-14T17:35:57.830Z,0.70
2018-02-14T17:38:01.616Z,0.90
2018-02-14T17:40:04.322Z,0.90
2018-02-14T17:42:07.076Z,1.20
2018-02-14T17:44:09.872Z,1.10
2018-02-14T17:46:13.325Z,1.00
2018-02-14T17:48:15.991Z,1.00
2018-02-14T17:50:18.669Z,1.00
2018-02-14T17:52:22.194Z,1.10
2018-02-14T17:54:25.605Z,1.20
2018-02-14T17:56:29.020Z,1.10
2018-02-14T17:58:32.477Z,0.90
2018-02-14T18:00:35.165Z,0.90
2018-02-14T18:02:37.830Z,0.90
2018-02-14T18:04:41.216Z,0.90
2018-02-14T18:06:44.691Z,1.20
2018-02-14T18:08:47.456Z,1.20
2018-02-14T18:10:50.970Z,1.20
2018-02-14T18:12:54.366Z,1.30
2018-02-14T18:14:57.022Z,1.30
2018-02-14T18:16:59.645Z,1.20
2018-02-14T18:19:02.502Z,1.10
2018-02-14T18:21:05.155Z,1.00
2018-02-14T18:23:07.772Z,0.90
2018-02-14T18:25:11.359Z,0.80
2018-02-14T18:27:13.950Z,0.70
2018-02-14T18:29:16.590Z,0.90
2018-02-14T18:31:20.052Z,1.00
2018-02-14T18:33:22.685Z,1.00
2018-02-14T18:35:26.125Z,0.80
2018-02-14T18:37:28.842Z,0.80
2018-02-14T18:39:31.617Z,0.90
2018-02-14T18:41:35.051Z,1.20
2018-02-14T18:43:37.690Z,1.20
2018-02-14T18:45:40.428Z,1.30
2018-02-14T18:47:43.103Z,1.20
2018-02-14T18:49:46.644Z,1.30
2018-02-14T18:51:49.264Z,1.30
2018-02-14T18:53:51.957Z,1.30
2018-02-14T18:55:54.716Z,1.20
2018-02-14T18:57:58.173Z,1.20
2018-02-14T19:00:00.871Z,1.10
2018-02-14T19:02:03.636Z,1.20
2018-02-14T19:04:07.042Z,1.40
2018-02-14T19:06:10.566Z,1.40
2018-02-14T19:08:13.940Z,1.40
2018-02-14T19:10:16.581Z,1.40
2018-02-14T19:12:19.252Z,1.40
2018-02-14T19:14:21.884Z,1.40
2018-02-14T19:16:24.597Z,1.40
2018-02-14T19:18:27.266Z,1.40
2018-02-14T19:20:30.685Z,1.50
2018-02-14T19:22:34.167Z,1.40
2018-02-14T19:24:36.807Z,1.40
2018-02-14T19:26:39.489Z,1.40
2018-02-14T19:28:42.910Z,1.30
2018-02-14T19:30:45.603Z,1.30
2018-02-14T19:32:48.254Z,1.30
2018-02-14T19:34:50.899Z,1.40
2018-02-14T19:36:54.345Z,1.40
2018-02-14T19:38:56.977Z,1.40
2018-02-14T19:40:59.613Z,1.40
2018-02-14T19:43:15.422Z,1.20
2018-02-14T19:45:18.098Z,1.20
2018-02-14T19:47:20.730Z,1.30
2018-02-14T19:49:24.155Z,1.30
2018-02-14T19:51:27.617Z,1.30
2018-02-14T19:53:30.262Z,1.30
2018-02-14T19:55:33.072Z,1.20
2018-02-14T19:57:36.497Z,1.40
2018-02-14T19:59:39.183Z,1.30
2018-02-14T20:01:42.677Z,1.40
2018-02-14T20:03:45.402Z,1.40
2018-02-14T20:05:48.187Z,1.30
2018-02-14T20:07:50.812Z,1.30
2018-02-14T20:09:53.513Z,1.20
2018-02-14T20:11:56.184Z,1.20
2018-02-14T20:13:58.857Z,1.10
2018-02-14T20:16:02.251Z,1.20
2018-02-14T20:18:05.785Z,1.30
2018-02-14T20:20:09.248Z,1.30
2018-02-14T20:22:11.902Z,1.30
2018-02-14T20:24:14.697Z,1.40
2018-02-14T20:26:18.221Z,1.30
2018-02-14T20:28:20.867Z,1.30
2018-02-14T20:30:23.602Z,1.30
2018-02-14T20:32:27.019Z,1.20
2018-02-14T20:34:30.462Z,1.20
2018-02-14T20:36:33.142Z,1.20
2018-02-14T20:38:35.842Z,1.20
2018-02-14T20:40:38.633Z,1.20
2018-02-14T20:42:42.153Z,1.30
2018-02-14T20:44:45.639Z,1.40
2018-02-14T20:46:48.293Z,1.30
2018-02-14T20:48:50.933Z,1.40
2018-02-14T20:50:53.756Z,1.30
2018-02-14T20:52:57.170Z,1.30
2018-02-14T20:55:00.583Z,1.40
2018-02-14T20:57:04.105Z,1.30
2018-02-14T20:59:07.514Z,1.30
2018-02-14T21:01:11.084Z,1.30
2018-02-14T21:03:13.729Z,1.30
2018-02-14T21:05:17.173Z,1.40
2018-02-14T21:07:19.859Z,1.30
2018-02-14T21:09:22.484Z,1.30
2018-02-14T21:11:25.249Z,1.30
2018-02-14T21:13:27.903Z,1.40
2018-02-14T21:15:30.616Z,1.40
2018-02-14T21:17:34.009Z,1.40
2018-02-14T21:19:36.746Z,1.40
2018-02-14T21:21:40.258Z,1.30
2018-02-14T21:23:43.713Z,1.30
2018-02-14T21:25:46.347Z,1.30
2018-02-14T21:27:49.011Z,1.40
2018-02-14T21:29:51.669Z,1.40
2018-02-14T21:31:54.339Z,1.40
2018-02-14T21:33:57.059Z,1.30
2018-02-14T21:36:00.457Z,1.40
2018-02-14T21:38:03.899Z,1.40
2018-02-14T21:40:06.581Z,1.40
2018-02-14T21:42:10.010Z,1.30
2018-02-14T21:44:12.648Z,1.30
2018-02-14T21:46:15.339Z,1.30
2018-02-14T21:48:18.075Z,1.30
2018-02-14T21:50:20.697Z,1.30
2018-02-14T21:52:23.363Z,1.30
2018-02-14T21:54:26.017Z,1.30
2018-02-14T21:56:28.779Z,1.20
2018-02-14T21:58:32.194Z,1.50
2018-02-14T22:00:35.609Z,1.40
2018-02-14T22:02:38.262Z,1.40
2018-02-14T22:04:40.913Z,1.40
2018-02-14T22:06:43.649Z,1.40
2018-02-14T22:08:47.058Z,1.40
2018-02-14T22:10:49.777Z,1.40
2018-02-14T22:12:52.513Z,1.40
2018-02-14T22:14:55.894Z,1.40
2018-02-14T22:16:58.573Z,1.40
2018-02-14T22:19:01.318Z,1.40
2018-02-14T22:21:03.963Z,1.50
2018-02-14T22:23:06.724Z,1.50
2018-02-14T22:25:10.089Z,1.50
2018-02-14T22:27:12.830Z,1.50
2018-02-14T22:29:16.199Z,1.60
2018-02-14T22:31:18.834Z,1.60
2018-02-14T22:33:22.359Z,1.60
2018-02-14T22:35:25.060Z,1.60
2018-02-14T22:37:27.757Z,1.60
2018-02-14T22:39:31.263Z,1.50
2018-02-14T22:41:34.679Z,1.60
2018-02-14T22:43:38.106Z,1.60
2018-02-14T22:45:40.904Z,1.50
2018-02-14T22:47:43.513Z,1.60
2018-02-14T22:49:46.128Z,1.60
2018-02-14T22:51:48.818Z,1.70
2018-02-14T22:53:51.443Z,1.60
2018-02-14T22:55:54.058Z,1.60
2018-02-14T22:57:56.764Z,1.60
2018-02-14T22:59:59.429Z,1.60
2018-02-14T23:02:02.934Z,1.60
2018-02-14T23:04:05.685Z,1.60
2018-02-14T23:06:08.383Z,1.60
2018-02-14T23:08:11.900Z,1.60
2018-02-14T23:10:15.417Z,1.60
2018-02-14T23:12:18.842Z,1.60
2018-02-14T23:14:21.443Z,1.60
2018-02-14T23:16:24.101Z,1.60
2018-02-14T23:18:26.722Z,1.60
2018-02-14T23:20:30.160Z,1.70
2018-02-14T23:22:32.819Z,1.70
2018-02-14T23:24:36.205Z,1.70
2018-02-14T23:26:39.654Z,1.80
2018-02-14T23:28:43.188Z,1.80
2018-02-14T23:30:45.805Z,1.80
2018-02-14T23:32:48.471Z,1.80
2018-02-14T23:34:51.884Z,1.70
2018-02-14T23:36:55.295Z,1.70
2018-02-14T23:38:58.720Z,1.80
2018-02-14T23:41:01.353Z,1.70
2018-02-14T23:43:03.961Z,1.80
2018-02-14T23:45:06.623Z,1.80
2018-02-14T23:47:09.251Z,1.80
2018-02-14T23:49:12.641Z,1.70
2018-02-14T23:51:15.239Z,1.70
2018-02-14T23:53:17.918Z,1.70
2018-02-14T23:55:20.546Z,1.70
2018-02-14T23:57:23.132Z,1.80
2018-02-14T23:59:25.772Z,1.70
